Time;durP1;ratioP1;P1;durP2;ratioP2;P2;SDS_P1;SDS_P2;PMS_P1;PMS_P2;Temp;Humidity;BMP_temperature;BMP_pressure;BME280_temperature;BME280_humidity;BME280_pressure;Samples;Min_cycle;Max_cycle;Signal;HPM_P1;HPM_P2
2024/01/08 00:02:16;;;;;;;4.07;2.58;;;;;;;-142.57;100.00;56759.94;4975726;28;20045;-86
2024/01/08 00:04:42;;;;;;;8.57;2.65;;;;;;;-142.57;100.00;56703.34;4969130;28;20037;-84
2024/01/08 00:07:08;;;;;;;5.20;2.75;;;;;;;-142.57;100.00;56679.09;4971437;28;20033;-85
2024/01/08 00:09:34;;;;;;;3.33;2.38;;;;;;;-142.57;100.00;56646.75;4971904;28;21321;-86
2024/01/08 00:12:00;;;;;;;3.55;1.98;;;;;;;-142.57;100.00;56557.81;4971346;28;22367;-84
2024/01/08 00:14:28;;;;;;;3.17;2.15;;;;;;;-142.57;100.00;56610.38;4972935;28;20044;-83
2024/01/08 00:16:55;;;;;;;3.75;2.25;;;;;;;-142.57;100.00;56614.41;4953007;28;22046;-85
2024/01/08 00:19:21;;;;;;;3.03;2.25;;;;;;;-142.57;100.00;56610.38;4971647;28;20037;-84
2024/01/08 00:21:49;;;;;;;5.03;2.42;;;;;;;-142.57;100.00;56620.47;4992011;28;20385;-86
2024/01/08 00:24:20;;;;;;;4.20;2.15;;;;;;;-142.57;100.00;56576.00;5056653;28;20037;-83
2024/01/08 00:26:45;;;;;;;2.70;2.20;;;;;;;-142.57;100.00;56557.81;5062659;28;20114;-82
2024/01/08 00:29:51;;;;;;;;;;;;;;;;;;;;;
2024/01/08 00:32:17;;;;;;;3.05;1.95;;;;;;;-142.57;100.00;56559.84;4962245;28;21860;-83
2024/01/08 00:34:43;;;;;;;3.00;2.33;;;;;;;-142.57;100.00;56549.75;4941510;28;20108;-83
2024/01/08 00:37:11;;;;;;;2.53;1.90;;;;;;;-142.57;100.00;56541.66;4989944;28;20053;-85
2024/01/08 00:39:37;;;;;;;2.78;2.15;;;;;;;-142.57;100.00;56557.81;4960035;28;20037;-84
2024/01/08 00:42:03;;;;;;;2.30;1.90;;;;;;;-142.57;100.00;56537.63;4939689;28;21099;-82
2024/01/08 00:44:28;;;;;;;5.78;2.47;;;;;;;-142.57;100.00;56535.59;4937636;28;20434;-87
2024/01/08 00:46:54;;;;;;;3.15;2.47;;;;;;;-142.57;100.00;56543.69;4941952;28;20736;-84
2024/01/08 00:49:19;;;;;;;8.25;2.88;;;;;;;-142.57;100.00;56557.81;4951434;28;20046;-82
2024/01/08 00:51:46;;;;;;;2.97;2.50;;;;;;;-142.57;100.00;56567.94;4954433;28;20025;-84
2024/01/08 00:54:12;;;;;;;4.38;2.65;;;;;;;-142.57;100.00;56571.97;4934918;28;20109;-82
2024/01/08 00:56:37;;;;;;;3.38;2.55;;;;;;;-142.57;100.00;56574.00;4950701;28;21052;-82
2024/01/08 00:59:03;;;;;;;6.20;2.35;;;;;;;-142.57;100.00;56594.19;4896639;28;20065;-83
2024/01/08 01:01:28;;;;;;;3.75;2.60;;;;;;;-142.57;100.00;56594.19;4935499;28;20041;-83
2024/01/08 01:03:54;;;;;;;2.83;2.20;;;;;;;-142.57;100.00;56590.16;4934720;28;20050;-84
2024/01/08 01:06:21;;;;;;;3.35;2.88;;;;;;;-142.57;100.00;56622.50;4934129;28;21214;-84
2024/01/08 01:08:47;;;;;;;3.17;2.33;;;;;;;-142.57;100.00;56565.91;4931390;28;20175;-84
2024/01/08 01:11:15;;;;;;;5.07;2.40;;;;;;;-142.57;100.00;56561.88;4974132;28;20458;-85
2024/01/08 01:13:40;;;;;;;2.88;2.15;;;;;;;-142.57;100.00;56584.09;4973661;28;20041;-82
2024/01/08 01:16:06;;;;;;;3.67;2.45;;;;;;;-142.57;100.00;56557.81;4975983;28;20987;-83
2024/01/08 01:18:32;;;;;;;3.75;2.45;;;;;;;-142.57;100.00;56539.63;4979409;28;20121;-88
2024/01/08 01:20:58;;;;;;;3.67;2.50;;;;;;;-142.57;100.00;56586.13;4978305;28;20104;-83
2024/01/08 01:23:23;;;;;;;3.47;2.50;;;;;;;-142.57;100.00;56545.69;4978593;28;20040;-85
2024/01/08 01:25:49;;;;;;;3.50;2.53;;;;;;;-142.57;100.00;56525.50;4982854;28;20167;-84
2024/01/08 01:28:15;;;;;;;4.15;2.90;;;;;;;-142.57;100.00;56555.81;4983381;28;20069;-84
2024/01/08 01:30:40;;;;;;;3.22;2.58;;;;;;;-142.57;100.00;56511.34;4979450;28;20033;-87
2024/01/08 01:33:06;;;;;;;3.70;2.40;;;;;;;-142.57;100.00;56509.31;4984970;28;20033;-85
2024/01/08 01:35:31;;;;;;;2.90;2.60;;;;;;;-142.57;100.00;56505.28;4982088;28;20097;-86
2024/01/08 01:37:58;;;;;;;3.65;2.45;;;;;;;-142.57;100.00;56509.31;4984203;28;20091;-83
2024/01/08 01:40:26;;;;;;;3.30;2.50;;;;;;;-142.57;100.00;56529.53;4989537;28;20108;-85
2024/01/08 01:42:54;;;;;;;2.97;2.53;;;;;;;-142.57;100.00;56519.44;4997685;28;20136;-84
2024/01/08 01:45:23;;;;;;;2.53;2.20;;;;;;;-142.57;100.00;56537.63;4994533;28;20040;-82
2024/01/08 01:47:54;;;;;;;3.30;2.67;;;;;;;-142.57;100.00;56541.66;4983470;28;20723;-83
2024/01/08 01:50:21;;;;;;;3.40;2.78;;;;;;;-142.57;100.00;56525.50;4970318;28;20052;-86
2024/01/08 01:52:47;;;;;;;3.63;2.88;;;;;;;-142.57;100.00;56539.63;4972564;28;22142;-84
2024/01/08 01:55:13;;;;;;;4.82;2.85;;;;;;;-142.57;100.00;56569.94;4971473;28;20041;-85
2024/01/08 01:57:41;;;;;;;3.67;2.75;;;;;;;-142.57;100.00;56539.63;4972735;28;21855;-82
2024/01/08 02:00:07;;;;;;;3.47;2.60;;;;;;;-142.57;100.00;56493.16;4971060;28;20170;-84
2024/01/08 02:02:39;;;;;;;3.53;2.72;;;;;;;-142.57;100.00;56507.31;4971180;28;21413;-83
2024/01/08 02:05:04;;;;;;;3.72;2.80;;;;;;;-142.57;100.00;56509.31;4972740;28;20040;-84
2024/01/08 02:07:31;;;;;;;3.20;2.50;;;;;;;-142.57;100.00;56513.38;4971203;28;20111;-84
2024/01/08 02:09:56;;;;;;;2.95;2.42;;;;;;;-142.57;100.00;56513.38;4971822;28;20041;-85
2024/01/08 02:12:25;;;;;;;4.07;2.70;;;;;;;-142.57;100.00;56531.56;4971437;28;20539;-84
2024/01/08 02:14:51;;;;;;;6.72;3.50;;;;;;;-142.57;100.00;56509.31;4971120;28;20063;-86
2024/01/08 02:17:17;;;;;;;4.13;2.70;;;;;;;-142.57;100.00;56501.25;4969599;28;20032;-85
2024/01/08 02:19:42;;;;;;;4.57;2.97;;;;;;;-142.57;100.00;56458.81;4973675;28;20036;-85
2024/01/08 02:22:08;;;;;;;3.92;2.88;;;;;;;-142.57;100.00;56493.16;4974190;28;20041;-84
2024/01/08 02:24:33;;;;;;;4.28;3.20;;;;;;;-142.57;100.00;56503.25;4971451;28;20039;-84
2024/01/08 02:27:00;;;;;;;5.38;3.30;;;;;;;-142.57;100.00;56487.09;4971479;28;20341;-84
2024/01/08 02:29:28;;;;;;;3.78;3.00;;;;;;;-142.57;100.00;56493.16;4970706;28;20131;-83
2024/01/08 02:31:54;;;;;;;3.53;2.88;;;;;;;-142.57;100.00;56503.25;4968671;28;20291;-82
2024/01/08 02:34:19;;;;;;;3.50;2.97;;;;;;;-142.57;100.00;56460.81;4970492;28;20091;-86
2024/01/08 02:36:45;;;;;;;3.80;3.03;;;;;;;-142.57;100.00;56509.31;4970399;28;20028;-84
2024/01/08 02:39:10;;;;;;;4.50;3.22;;;;;;;-142.57;100.00;56444.66;4970369;28;20049;-83
2024/01/08 02:41:36;;;;;;;3.83;2.60;;;;;;;-142.57;100.00;56456.78;4972476;28;20040;-84
2024/01/08 02:44:01;;;;;;;3.53;2.65;;;;;;;-142.57;100.00;56468.91;4967632;28;20682;-83
2024/01/08 02:46:27;;;;;;;4.53;2.80;;;;;;;-142.57;100.00;56456.78;4969867;28;20040;-86
2024/01/08 02:48:53;;;;;;;3.78;2.70;;;;;;;-142.57;100.00;56440.59;4971725;28;20036;-83
2024/01/08 02:51:18;;;;;;;3.60;2.60;;;;;;;-142.57;100.00;56460.81;4968640;28;20036;-85
2024/01/08 02:53:45;;;;;;;3.35;2.95;;;;;;;-142.57;100.00;56489.13;4969556;28;20041;-85
2024/01/08 02:56:24;;;;;;;3.65;2.92;;;;;;;-142.57;100.00;56521.44;4970352;28;20045;-82
2024/01/08 02:58:50;;;;;;;3.45;2.78;;;;;;;-142.57;100.00;56468.91;4975868;28;21529;-83
2024/01/08 03:01:16;;;;;;;4.07;2.78;;;;;;;-142.57;100.00;56513.38;4975253;28;20037;-83
2024/01/08 03:03:42;;;;;;;3.75;2.65;;;;;;;-142.57;100.00;56493.16;4957576;28;20029;-82
2024/01/08 03:06:07;;;;;;;3.97;2.50;;;;;;;-142.57;100.00;56501.25;4975110;28;21926;-85
2024/01/08 03:08:33;;;;;;;3.40;2.58;;;;;;;-142.57;100.00;56440.59;4986724;28;20012;-85
2024/01/08 03:10:58;;;;;;;3.38;2.70;;;;;;;-142.57;100.00;56466.88;4974725;28;20031;-84
2024/01/08 03:13:24;;;;;;;3.83;2.42;;;;;;;-142.57;100.00;56485.06;4974599;28;20048;-84
2024/01/08 03:15:50;;;;;;;3.15;2.40;;;;;;;-142.57;100.00;56529.53;4976342;28;20059;-83
2024/01/08 03:18:15;;;;;;;3.45;2.40;;;;;;;-142.57;100.00;56444.66;4979651;28;20049;-84
2024/01/08 03:20:41;;;;;;;3.08;2.10;;;;;;;-142.57;100.00;56420.41;4985133;28;20155;-83
2024/01/08 03:23:09;;;;;;;3.75;2.72;;;;;;;-142.57;100.00;56474.97;4983450;28;20029;-84
2024/01/08 03:25:35;;;;;;;3.65;2.22;;;;;;;-142.57;100.00;56483.06;4983132;28;20075;-83
2024/01/08 03:28:01;;;;;;;3.10;2.50;;;;;;;-142.57;100.00;56468.91;4981115;28;20045;-82
2024/01/08 03:30:27;;;;;;;7.07;2.80;;;;;;;-142.57;100.00;56432.53;4985642;28;20603;-84
2024/01/08 03:32:55;;;;;;;3.47;2.60;;;;;;;-142.57;100.00;56436.56;4997153;28;20029;-84
2024/01/08 03:35:22;;;;;;;3.17;2.60;;;;;;;-142.57;100.00;56426.47;5001186;28;20037;-86
2024/01/08 03:37:48;;;;;;;4.00;2.72;;;;;;;-142.57;100.00;56481.03;4982444;28;20043;-83
2024/01/08 03:40:16;;;;;;;5.07;2.55;;;;;;;-142.57;100.00;56452.75;4997422;28;20040;-82
2024/01/08 03:42:42;;;;;;;4.50;3.25;;;;;;;-142.57;100.00;56454.75;4996801;28;20056;-82
2024/01/08 03:45:08;;;;;;;5.90;3.00;;;;;;;-142.57;100.00;56436.56;4991793;28;22116;-83
2024/01/08 03:47:35;;;;;;;3.88;2.67;;;;;;;-142.57;100.00;56501.25;4983352;28;20075;-83
2024/01/08 03:50:01;;;;;;;3.50;2.80;;;;;;;-142.57;100.00;56446.66;4985513;28;20029;-85
2024/01/08 03:52:26;;;;;;;3.72;3.17;;;;;;;-142.57;100.00;56444.66;4987253;28;20037;-85
2024/01/08 03:54:52;;;;;;;4.05;3.03;;;;;;;-142.57;100.00;56424.44;4988312;28;20137;-82
2024/01/08 03:57:17;;;;;;;4.68;3.15;;;;;;;-142.57;100.00;56448.69;5022567;28;20055;-85
2024/01/08 03:59:45;;;;;;;5.18;3.38;;;;;;;-142.57;100.00;56420.41;5077176;28;20017;-83
2024/01/08 04:02:12;;;;;;;3.60;3.05;;;;;;;-142.57;100.00;56460.81;5078813;28;20074;-87
2024/01/08 04:04:41;;;;;;;4.80;3.55;;;;;;;-142.57;100.00;56468.91;5073386;28;20055;-86
2024/01/08 04:07:25;;;;;;;5.88;4.32;;;;;;;-142.57;100.00;56493.16;5077142;28;20406;-86
2024/01/08 04:10:13;;;;;;;4.25;3.42;;;;;;;-142.57;100.00;56468.91;5069795;28;20072;-84
2024/01/08 04:12:38;;;;;;;4.80;3.35;;;;;;;-142.57;100.00;56452.75;5067723;28;20063;-86
2024/01/08 04:15:04;;;;;;;6.20;3.78;;;;;;;-142.57;100.00;56487.09;5051223;28;20405;-83
2024/01/08 04:17:30;;;;;;;4.93;3.67;;;;;;;-142.57;100.00;56452.75;5069341;28;20443;-87
2024/01/08 04:19:55;;;;;;;5.80;3.75;;;;;;;-142.57;100.00;56481.03;5067883;28;20037;-85
2024/01/08 04:22:21;;;;;;;5.72;3.80;;;;;;;-142.57;100.00;56493.16;5068946;28;20040;-88
2024/01/08 04:24:46;;;;;;;5.93;3.85;;;;;;;-142.57;100.00;56487.09;5069011;28;20057;-85
2024/01/08 04:27:12;;;;;;;5.75;3.92;;;;;;;-142.57;100.00;56454.75;5068513;28;20068;-85
2024/01/08 04:29:37;;;;;;;6.15;3.80;;;;;;;-142.57;100.00;56481.03;5067697;28;20048;-87
2024/01/08 04:32:03;;;;;;;5.00;3.95;;;;;;;-142.57;100.00;56509.31;5069471;28;20033;-87
2024/01/08 04:34:29;;;;;;;6.15;3.42;;;;;;;-142.57;100.00;56555.81;5052534;28;20032;-86
2024/01/08 04:36:54;;;;;;;5.32;3.80;;;;;;;-142.57;100.00;56533.56;5075871;28;20037;-83
2024/01/08 04:39:20;;;;;;;5.63;4.03;;;;;;;-142.57;100.00;56505.28;5079154;28;20009;-84
2024/01/08 04:41:50;;;;;;;5.70;4.00;;;;;;;-142.57;100.00;56503.25;5078983;28;20041;-83
2024/01/08 04:44:25;;;;;;;6.57;4.60;;;;;;;-142.57;100.00;56481.03;5077443;28;20019;-87
2024/01/08 04:46:51;;;;;;;6.07;4.40;;;;;;;-142.57;100.00;56452.75;5066412;28;20036;-86
2024/01/08 04:49:17;;;;;;;6.30;4.25;;;;;;;-142.57;100.00;56505.28;5065069;28;20037;-84
2024/01/08 04:51:43;;;;;;;6.25;4.65;;;;;;;-142.57;100.00;56539.63;5065244;28;20116;-84
2024/01/08 04:54:08;;;;;;;6.78;4.63;;;;;;;-142.57;100.00;56549.75;5064634;28;20037;-86
2024/01/08 04:56:35;;;;;;;5.25;3.92;;;;;;;-142.57;100.00;56590.16;5062845;28;20033;-86
2024/01/08 04:59:01;;;;;;;6.75;3.92;;;;;;;-142.57;100.00;56569.94;5059567;28;20432;-84
2024/01/08 05:01:26;;;;;;;7.47;4.63;;;;;;;-142.57;100.00;56582.06;5042856;28;20098;-85
2024/01/08 05:03:52;;;;;;;7.47;5.07;;;;;;;-142.57;100.00;56545.69;5061996;28;20021;-85
2024/01/08 05:06:18;;;;;;;10.43;4.68;;;;;;;-142.57;100.00;56545.69;5057869;28;20120;-85
2024/01/08 05:08:43;;;;;;;6.05;4.68;;;;;;;-142.57;100.00;56505.28;5057500;28;20086;-85
2024/01/08 05:11:10;;;;;;;7.72;5.43;;;;;;;-142.57;100.00;56523.47;5055352;28;20099;-85
2024/01/08 05:13:39;;;;;;;6.63;4.30;;;;;;;-142.57;100.00;56517.41;5064677;28;20028;-84
2024/01/08 05:16:06;;;;;;;5.93;4.65;;;;;;;-142.57;100.00;56497.19;5064991;28;20068;-85
2024/01/08 05:18:31;;;;;;;8.27;4.43;;;;;;;-142.57;100.00;56470.94;5062028;28;20037;-84
2024/01/08 05:20:57;;;;;;;6.88;5.18;;;;;;;-142.57;100.00;56464.84;5062550;28;20029;-82
2024/01/08 05:23:24;;;;;;;8.35;5.13;;;;;;;-142.57;100.00;56448.69;5063337;28;20245;-85
2024/01/08 05:25:49;;;;;;;7.70;5.40;;;;;;;-142.57;100.00;56464.84;5063007;28;20037;-84
2024/01/08 05:28:16;;;;;;;7.70;5.60;;;;;;;-142.57;100.00;56472.94;5064732;28;20028;-85
2024/01/08 05:30:42;;;;;;;7.78;5.38;;;;;;;-142.57;100.00;56420.41;5059420;28;20033;-87
2024/01/08 05:33:07;;;;;;;9.98;5.57;;;;;;;-142.57;100.00;56472.94;5040136;28;20035;-85
2024/01/08 05:35:34;;;;;;;6.88;5.55;;;;;;;-142.57;100.00;56487.09;5059413;28;20063;-84
2024/01/08 05:38:01;;;;;;;7.35;5.55;;;;;;;-142.57;100.00;56505.28;5061086;28;20028;-85
2024/01/08 05:40:27;;;;;;;8.48;5.72;;;;;;;-142.57;100.00;56515.38;5060397;28;20088;-86
2024/01/08 05:42:53;;;;;;;7.60;5.68;;;;;;;-142.57;100.00;56517.41;5045762;28;20170;-88
2024/01/08 05:45:21;;;;;;;8.38;5.30;;;;;;;-142.57;100.00;56507.31;5039736;28;20029;-87
2024/01/08 05:47:47;;;;;;;5.85;4.40;;;;;;;-142.57;100.00;56501.25;5056181;28;20040;-84
2024/01/08 05:50:16;;;;;;;6.60;5.05;;;;;;;-142.57;100.00;56477.00;5055926;28;20065;-85
2024/01/08 05:52:45;;;;;;;8.25;5.47;;;;;;;-142.57;100.00;56456.78;5051844;28;20033;-86
2024/01/08 05:55:14;;;;;;;7.78;5.70;;;;;;;-142.57;100.00;56462.84;5061964;28;20025;-87
2024/01/08 05:57:43;;;;;;;9.38;6.18;;;;;;;-142.57;100.00;56416.34;5058869;28;20059;-83
2024/01/08 06:00:09;;;;;;;11.30;7.10;;;;;;;-142.57;100.00;56428.47;5056469;28;20033;-83
2024/01/08 06:02:35;;;;;;;13.38;8.07;;;;;;;-142.57;100.00;56464.84;5047428;28;20105;-86
2024/01/08 06:05:01;;;;;;;19.30;10.60;;;;;;;-142.57;100.00;56452.75;5065652;28;20025;-86
2024/01/08 06:07:27;;;;;;;17.85;10.23;;;;;;;-142.57;100.00;56464.84;5047181;28;20037;-87
2024/01/08 06:09:53;;;;;;;14.48;9.00;;;;;;;-142.57;100.00;56501.25;5064413;28;20052;-84
2024/01/08 06:12:18;;;;;;;13.23;8.70;;;;;;;-142.57;100.00;56509.31;5046587;28;20025;-87
2024/01/08 06:14:57;;;;;;;9.60;6.53;;;;;;;-142.57;100.00;56521.44;5064353;28;20086;-87
2024/01/08 06:17:27;;;;;;;9.70;6.60;;;;;;;-142.57;100.00;56483.06;5046842;28;20045;-90
2024/01/08 06:19:52;;;;;;;7.93;5.25;;;;;;;-142.57;100.00;56507.31;5065944;28;20037;-87
2024/01/08 06:22:18;;;;;;;10.95;6.47;;;;;;;-142.57;100.00;56549.75;5067140;28;20192;-87
2024/01/08 06:24:44;;;;;;;8.13;6.18;;;;;;;-142.57;100.00;56501.25;5063597;28;20542;-85
2024/01/08 06:27:09;;;;;;;8.73;6.40;;;;;;;-142.57;100.00;56525.50;5047391;28;20068;-86
2024/01/08 06:29:35;;;;;;;8.70;6.05;;;;;;;-142.57;100.00;56477.00;5047221;28;20120;-85
2024/01/08 06:32:03;;;;;;;8.77;5.75;;;;;;;-142.57;100.00;56472.94;5060140;28;20029;-85
2024/01/08 06:34:29;;;;;;;9.10;4.85;;;;;;;-142.57;100.00;56487.09;5062923;28;20065;-88
2024/01/08 06:36:58;;;;;;;7.40;5.13;;;;;;;-142.57;100.00;56517.41;5061664;28;20044;-88
2024/01/08 06:39:26;;;;;;;8.20;5.05;;;;;;;-142.57;100.00;56485.06;5060471;28;20451;-85
2024/01/08 06:41:52;;;;;;;8.00;5.03;;;;;;;-142.57;100.00;56519.44;5053660;28;20470;-85
2024/01/08 06:44:17;;;;;;;7.25;4.97;;;;;;;-142.57;100.00;56485.06;5037395;28;20167;-85
2024/01/08 06:46:43;;;;;;;6.13;4.47;;;;;;;-142.57;100.00;56545.69;5059248;28;20112;-88
2024/01/08 06:49:09;;;;;;;6.10;4.45;;;;;;;-142.57;100.00;56513.38;5058898;28;20134;-87
2024/01/08 06:51:42;;;;;;;6.72;4.88;;;;;;;-142.57;100.00;56477.00;5067301;28;20032;-87
2024/01/08 06:54:08;;;;;;;10.07;5.32;;;;;;;-142.57;100.00;56495.19;5069175;28;20055;-87
2024/01/08 06:56:34;;;;;;;7.43;4.90;;;;;;;-142.57;100.00;56539.63;5065316;28;20033;-85
2024/01/08 06:59:01;;;;;;;7.90;5.05;;;;;;;-142.57;100.00;56477.00;5071307;28;20025;-88
2024/01/08 07:01:33;;;;;;;6.18;4.78;;;;;;;-142.57;100.00;56481.03;5048001;28;20122;-85
2024/01/08 07:04:00;;;;;;;7.22;5.00;;;;;;;-142.57;100.00;56477.00;5072990;28;20097;-86
2024/01/08 07:06:37;;;;;;;10.20;5.47;;;;;;;-142.57;100.00;56456.78;5073404;28;20502;-85
2024/01/08 07:09:03;;;;;;;9.98;5.97;;;;;;;-142.57;100.00;56460.81;5057820;28;20108;-85
2024/01/08 07:11:32;;;;;;;10.15;5.85;;;;;;;-142.57;100.00;56452.75;5076849;28;20020;-84
2024/01/08 07:13:58;;;;;;;11.50;6.53;;;;;;;-142.57;100.00;56440.59;5073784;28;20041;-84
2024/01/08 07:16:27;;;;;;;12.80;6.10;;;;;;;-142.57;100.00;56499.22;5067506;28;20056;-85
2024/01/08 07:18:54;;;;;;;8.90;5.78;;;;;;;-142.57;100.00;56456.78;5064689;28;20496;-88
2024/01/08 07:21:22;;;;;;;7.90;5.22;;;;;;;-142.57;100.00;56452.75;5062871;28;20085;-86
2024/01/08 07:23:54;;;;;;;10.82;5.80;;;;;;;-142.57;100.00;56452.75;5062689;28;20119;-88
2024/01/08 07:26:21;;;;;;;12.57;6.70;;;;;;;-142.57;100.00;56472.94;5065121;28;20655;-88
2024/01/08 07:28:46;;;;;;;11.48;6.82;;;;;;;-142.57;100.00;56448.69;5056113;28;20045;-83
2024/01/08 07:31:34;;;;;;;11.82;7.22;;;;;;;-142.57;100.00;56489.13;5047293;28;20056;-88
2024/01/08 07:34:04;;;;;;;14.38;7.50;;;;;;;-142.57;100.00;56479.00;5072502;28;20037;-84
2024/01/08 07:36:34;;;;;;;32.50;9.75;;;;;;;-142.57;100.00;56521.44;5076725;28;20047;-87
2024/01/08 07:39:06;;;;;;;48.67;10.52;;;;;;;-142.57;100.00;56493.16;5075801;28;20579;-89
2024/01/08 07:44:20;;;;;;;26.42;8.75;;;;;;;-142.57;100.00;56517.41;5040717;22;20135;-82
2024/01/08 07:46:46;;;;;;;13.48;7.97;;;;;;;-142.57;100.00;56523.47;4964194;28;20480;-81
2024/01/08 07:49:12;;;;;;;14.75;7.72;;;;;;;-142.57;100.00;56505.28;4983826;28;20058;-83
2024/01/08 07:51:39;;;;;;;13.57;8.45;;;;;;;-142.57;100.00;56505.28;4988243;28;20027;-89
2024/01/08 07:54:06;;;;;;;14.50;7.90;;;;;;;-142.57;100.00;56503.25;4983510;28;20034;-84
2024/01/08 07:56:32;;;;;;;13.68;8.30;;;;;;;-142.57;100.00;56485.06;4985743;28;20065;-87
2024/01/08 07:58:58;;;;;;;15.73;7.78;;;;;;;-142.57;100.00;56543.69;4985308;28;20043;-82
2024/01/08 08:01:23;;;;;;;17.55;7.45;;;;;;;-142.57;100.00;56537.63;4978534;28;20037;-81
2024/01/08 08:03:50;;;;;;;22.75;7.75;;;;;;;-142.57;100.00;56551.75;4978271;28;20047;-81
2024/01/08 08:06:15;;;;;;;17.42;7.82;;;;;;;-142.57;100.00;56582.06;4996047;28;20506;-81
2024/01/08 08:08:41;;;;;;;17.45;7.30;;;;;;;-142.57;100.00;56561.88;4969204;28;20480;-79
2024/01/08 08:11:07;;;;;;;62.80;10.13;;;;;;;-142.57;100.00;56602.28;4969738;28;20026;-80
2024/01/08 08:13:32;;;;;;;34.85;8.13;;;;;;;-142.57;100.00;56563.88;4957711;28;20035;-80
2024/01/08 08:15:59;;;;;;;12.43;5.88;;;;;;;-142.57;100.00;56584.09;4958352;28;20057;-85
2024/01/08 08:18:25;;;;;;;12.85;5.85;;;;;;;-142.57;100.00;56489.13;4975462;28;20576;-81
2024/01/08 08:20:50;;;;;;;12.60;6.10;;;;;;;-142.57;100.00;56493.16;4976464;28;20035;-81
2024/01/08 08:23:16;;;;;;;11.52;6.50;;;;;;;-142.57;100.00;56541.66;4976110;28;20062;-84
2024/01/08 08:25:42;;;;;;;11.20;7.03;;;;;;;-142.57;100.00;56523.47;4976902;28;20515;-83
2024/01/08 08:28:07;;;;;;;30.77;8.27;;;;;;;-142.57;100.00;56501.25;4969263;28;20416;-83
2024/01/08 08:30:33;;;;;;;35.63;11.52;;;;;;;-142.57;100.00;56511.34;4976875;28;20081;-81
2024/01/08 08:32:58;;;;;;;29.33;10.27;;;;;;;-142.57;100.00;56529.53;4976974;28;20061;-82
2024/01/08 08:35:30;;;;;;;17.27;8.32;;;;;;;-142.57;100.00;56513.38;4958911;28;20039;-85
2024/01/08 08:37:57;;;;;;;20.55;8.20;;;;;;;-142.57;100.00;56519.44;4976487;28;20039;-85
2024/01/08 08:40:24;;;;;;;27.73;12.77;;;;;;;-142.57;100.00;56525.50;4992516;28;20408;-88
2024/01/08 08:42:49;;;;;;;11.07;7.07;;;;;;;-142.57;100.00;56561.88;4979936;28;20070;-87
2024/01/08 08:45:17;;;;;;;19.20;8.10;;;;;;;-142.57;100.00;56553.78;4972589;28;20035;-81
2024/01/08 08:47:43;;;;;;;10.45;6.88;;;;;;;-142.57;100.00;56537.63;4994798;28;20049;-81
2024/01/08 08:50:09;;;;;;;15.85;7.03;;;;;;;-142.57;100.00;56533.56;4986035;28;20042;-80
2024/01/08 08:52:34;;;;;;;15.07;6.75;;;;;;;-142.57;100.00;56551.75;4980768;28;20034;-81
2024/01/08 08:55:00;;;;;;;9.95;6.68;;;;;;;-142.57;100.00;56553.78;4994854;28;20037;-79
2024/01/08 08:57:26;;;;;;;10.82;6.38;;;;;;;-142.57;100.00;56529.53;4994828;28;20051;-80
2024/01/08 08:59:51;;;;;;;10.60;7.03;;;;;;;-142.57;100.00;56519.44;4983620;28;20188;-79
2024/01/08 09:02:18;;;;;;;12.85;7.35;;;;;;;-142.57;100.00;56537.63;4975050;28;20385;-79
2024/01/08 09:04:43;;;;;;;15.50;7.78;;;;;;;-142.57;100.00;56582.06;4975873;28;20039;-79
2024/01/08 09:07:09;;;;;;;18.90;7.88;;;;;;;-142.57;100.00;56569.94;4974391;28;20053;-82
2024/01/08 09:09:35;;;;;;;14.95;8.13;;;;;;;-142.57;100.00;56543.69;4974408;28;20037;-81
2024/01/08 09:12:01;;;;;;;12.18;8.15;;;;;;;-142.57;100.00;56578.03;4973785;28;20038;-79
2024/01/08 09:14:26;;;;;;;14.70;8.48;;;;;;;-142.57;100.00;56549.75;4970012;28;20041;-80
2024/01/08 09:16:52;;;;;;;14.50;7.85;;;;;;;-142.57;100.00;56561.88;4951787;28;20180;-77
2024/01/08 09:19:18;;;;;;;14.02;8.93;;;;;;;-142.57;100.00;56565.91;4956879;28;20106;-82
2024/01/08 09:21:46;;;;;;;12.52;8.27;;;;;;;-142.57;100.00;56561.88;4955735;28;20053;-79
2024/01/08 09:24:11;;;;;;;17.52;9.57;;;;;;;-142.57;100.00;56580.06;4956729;28;20109;-84
2024/01/08 09:26:39;;;;;;;22.45;9.00;;;;;;;-142.57;100.00;56582.06;4955672;28;20039;-82
2024/01/08 09:29:06;;;;;;;18.33;8.48;;;;;;;-142.57;100.00;56561.88;4941741;29;20047;-89
2024/01/08 09:31:32;;;;;;;14.15;9.40;;;;;;;-142.57;100.00;56642.72;4935715;29;20098;-88
2024/01/08 09:33:57;;;;;;;14.57;9.00;;;;;;;-142.57;100.00;56630.56;4965774;28;20039;-82
2024/01/08 09:36:23;;;;;;;14.43;8.50;;;;;;;-142.57;100.00;56671.00;4966572;29;20035;-80
2024/01/08 09:38:48;;;;;;;15.48;8.88;;;;;;;-142.57;100.00;56614.41;4961996;28;20118;-86
2024/01/08 09:41:16;;;;;;;12.35;8.07;;;;;;;-142.57;100.00;56602.28;4964234;28;20085;-89
2024/01/08 09:43:48;;;;;;;15.20;9.10;;;;;;;-142.57;100.00;56582.06;4914860;29;20126;-88
2024/01/08 09:46:27;;;;;;;15.88;8.68;;;;;;;-142.57;100.00;56616.44;4966531;28;20035;-84
2024/01/08 09:48:54;;;;;;;15.20;8.88;;;;;;;-142.57;100.00;56644.72;4960616;28;20397;-86
2024/01/08 09:51:21;;;;;;;14.48;9.27;;;;;;;-142.57;100.00;56662.91;4957291;28;20031;-86
2024/01/08 09:53:46;;;;;;;13.00;8.95;;;;;;;-142.57;100.00;56679.09;4926264;28;20042;-85
2024/01/08 09:56:15;;;;;;;12.93;8.18;;;;;;;-142.57;100.00;56644.72;4960757;28;20393;-83
2024/01/08 09:58:43;;;;;;;16.45;8.65;;;;;;;-142.57;100.00;56650.78;4954984;28;20027;-80
2024/01/08 10:01:08;;;;;;;16.52;8.18;;;;;;;-142.57;100.00;56658.88;4955014;28;20031;-81
2024/01/08 10:03:35;;;;;;;11.25;7.20;;;;;;;-142.57;100.00;56638.66;4936945;28;20046;-80
2024/01/08 10:06:10;;;;;;;12.68;7.85;;;;;;;-142.57;100.00;56654.84;4937538;28;20070;-83
2024/01/08 10:08:38;;;;;;;11.38;7.28;;;;;;;-142.57;100.00;56703.34;4954753;28;20429;-84
2024/01/08 10:11:04;;;;;;;14.52;8.00;;;;;;;-142.57;100.00;56727.59;4937503;28;20051;-82
2024/01/08 10:13:30;;;;;;;15.25;8.05;;;;;;;-142.57;100.00;56733.66;4953732;28;20481;-80
2024/01/08 10:15:56;;;;;;;12.55;7.78;;;;;;;-142.57;100.00;56755.88;4953665;28;20082;-78
2024/01/08 10:18:25;;;;;;;10.60;6.63;;;;;;;-142.57;100.00;56780.13;4955200;28;20027;-79
2024/01/08 10:21:12;;;;;;;12.52;7.40;;;;;;;-142.57;100.00;56747.81;4957004;28;20086;-79
2024/01/08 10:23:38;;;;;;;11.68;7.95;;;;;;;-142.57;100.00;56782.16;4894284;29;20053;-80
2024/01/08 10:26:11;;;;;;;11.07;7.55;;;;;;;-142.57;100.00;56780.13;4894839;29;20115;-80
2024/01/08 10:28:37;;;;;;;13.20;7.60;;;;;;;-142.57;100.00;56755.88;4895083;29;20056;-80
2024/01/08 10:31:08;;;;;;;16.83;7.80;;;;;;;-142.57;100.00;56729.59;4895075;29;20064;-79
2024/01/08 10:33:34;;;;;;;13.82;8.15;;;;;;;-142.57;100.00;56739.72;4895914;29;20048;-83
2024/01/08 10:36:04;;;;;;;13.40;8.30;;;;;;;-142.57;100.00;56802.38;4895669;29;20044;-80
2024/01/08 10:38:33;;;;;;;16.52;7.70;;;;;;;-142.57;100.00;56792.25;4899295;29;20053;-83
2024/01/08 10:41:03;;;;;;;31.60;9.98;;;;;;;-142.57;100.00;56784.19;4897378;29;20545;-83
2024/01/08 10:43:29;;;;;;;17.92;8.02;;;;;;;-142.57;100.00;56796.31;4895642;29;20059;-83
2024/01/08 10:45:58;;;;;;;13.02;7.35;;;;;;;-142.57;100.00;56770.03;4894604;29;20047;-85
2024/01/08 10:48:40;;;;;;;13.98;7.63;;;;;;;-142.57;100.00;56788.22;4892795;29;20345;-85
2024/01/08 10:51:11;;;;;;;12.20;7.88;;;;;;;-142.57;100.00;56836.72;4877439;29;20123;-81
2024/01/08 10:53:41;;;;;;;16.17;7.07;;;;;;;-142.57;100.00;56818.53;4894849;29;20052;-84
2024/01/08 10:56:16;;;;;;;15.98;6.70;;;;;;;-142.57;100.00;56834.72;4894860;29;20058;-81
2024/01/08 10:58:52;;;;;;;22.60;7.30;;;;;;;-142.57;100.00;56852.91;4892958;29;20067;-83
2024/01/08 11:01:19;;;;;;;34.45;8.73;;;;;;;-142.57;100.00;56834.72;4940102;28;20495;-86
2024/01/08 11:04:02;;;;;;;14.45;7.78;;;;;;;-142.57;100.00;56826.63;4937522;28;20031;-87
2024/01/08 11:06:30;;;;;;;12.27;7.47;;;;;;;-142.57;100.00;56816.50;4937584;28;20046;-88
2024/01/08 11:09:00;;;;;;;9.50;6.93;;;;;;;-142.57;100.00;56840.78;4937454;28;20043;-87
2024/01/08 11:11:26;;;;;;;15.63;7.38;;;;;;;-142.57;100.00;56822.59;4955472;28;20405;-86